sensor_id;sensor_type;location;lat;lon;timestamp;temperature;humidity
11423;DHT22;5768;51.476;7.210;2023-04-29T00:02:59;12.80;22.70
11423;DHT22;5768;51.476;7.210;2023-04-29T00:08:03;13.10;22.30
11423;DHT22;5768;51.476;7.210;2023-04-29T00:13:05;12.90;22.30
11423;DHT22;5768;51.476;7.210;2023-04-29T00:18:08;12.80;22.40
11423;DHT22;5768;51.476;7.210;2023-04-29T00:23:12;12.60;22.60
11423;DHT22;5768;51.476;7.210;2023-04-29T00:28:14;12.70;22.70
11423;DHT22;5768;51.476;7.210;2023-04-29T00:33:16;12.60;22.60
11423;DHT22;5768;51.476;7.210;2023-04-29T00:38:20;12.60;22.90
11423;DHT22;5768;51.476;7.210;2023-04-29T00:43:22;12.50;22.80
11423;DHT22;5768;51.476;7.210;2023-04-29T00:48:24;12.40;23.50
11423;DHT22;5768;51.476;7.210;2023-04-29T00:53:29;12.40;23.20
11423;DHT22;5768;51.476;7.210;2023-04-29T00:58:32;12.40;23.10
11423;DHT22;5768;51.476;7.210;2023-04-29T01:03:35;12.20;23.30
11423;DHT22;5768;51.476;7.210;2023-04-29T01:08:51;12.20;23.80
11423;DHT22;5768;51.476;7.210;2023-04-29T01:14:04;12.10;24.00
11423;DHT22;5768;51.476;7.210;2023-04-29T01:19:15;12.10;24.60
11423;DHT22;5768;51.476;7.210;2023-04-29T01:24:39;12.20;24.80
11423;DHT22;5768;51.476;7.210;2023-04-29T01:29:49;12.20;24.70
11423;DHT22;5768;51.476;7.210;2023-04-29T01:34:59;12.10;24.70
11423;DHT22;5768;51.476;7.210;2023-04-29T01:40:15;11.90;24.50
11423;DHT22;5768;51.476;7.210;2023-04-29T01:45:22;11.80;24.40
11423;DHT22;5768;51.476;7.210;2023-04-29T01:50:25;11.60;24.50
11423;DHT22;5768;51.476;7.210;2023-04-29T01:55:29;11.60;25.20
11423;DHT22;5768;51.476;7.210;2023-04-29T02:00:31;11.50;24.80
11423;DHT22;5768;51.476;7.210;2023-04-29T02:05:33;11.40;25.30
11423;DHT22;5768;51.476;7.210;2023-04-29T02:10:37;11.40;25.90
11423;DHT22;5768;51.476;7.210;2023-04-29T02:15:39;11.20;26.70
11423;DHT22;5768;51.476;7.210;2023-04-29T02:20:42;11.20;27.20
11423;DHT22;5768;51.476;7.210;2023-04-29T02:25:46;10.80;27.10
11423;DHT22;5768;51.476;7.210;2023-04-29T02:30:49;10.70;27.30
11423;DHT22;5768;51.476;7.210;2023-04-29T02:35:51;10.80;26.70
11423;DHT22;5768;51.476;7.210;2023-04-29T02:40:54;11.00;26.30
11423;DHT22;5768;51.476;7.210;2023-04-29T02:45:57;11.10;25.80
11423;DHT22;5768;51.476;7.210;2023-04-29T02:51:00;11.10;25.30
11423;DHT22;5768;51.476;7.210;2023-04-29T02:56:04;11.20;25.00
11423;DHT22;5768;51.476;7.210;2023-04-29T03:01:07;11.40;24.60
11423;DHT22;5768;51.476;7.210;2023-04-29T03:06:10;11.40;24.60
11423;DHT22;5768;51.476;7.210;2023-04-29T03:11:13;11.30;24.40
11423;DHT22;5768;51.476;7.210;2023-04-29T03:16:15;11.00;24.80
11423;DHT22;5768;51.476;7.210;2023-04-29T03:21:17;11.00;25.20
11423;DHT22;5768;51.476;7.210;2023-04-29T03:26:21;11.10;25.10
11423;DHT22;5768;51.476;7.210;2023-04-29T03:31:24;11.20;25.10
11423;DHT22;5768;51.476;7.210;2023-04-29T03:36:26;11.10;25.00
11423;DHT22;5768;51.476;7.210;2023-04-29T03:41:30;11.20;24.90
11423;DHT22;5768;51.476;7.210;2023-04-29T03:46:32;11.30;24.80
11423;DHT22;5768;51.476;7.210;2023-04-29T03:51:35;11.10;24.70
11423;DHT22;5768;51.476;7.210;2023-04-29T03:56:38;11.00;25.10
11423;DHT22;5768;51.476;7.210;2023-04-29T04:01:41;11.00;25.20
11423;DHT22;5768;51.476;7.210;2023-04-29T04:06:44;11.00;25.00
11423;DHT22;5768;51.476;7.210;2023-04-29T04:11:52;11.00;24.90
11423;DHT22;5768;51.476;7.210;2023-04-29T04:16:54;10.90;25.10
11423;DHT22;5768;51.476;7.210;2023-04-29T04:21:57;11.00;25.10
11423;DHT22;5768;51.476;7.210;2023-04-29T04:27:00;10.90;25.50
11423;DHT22;5768;51.476;7.210;2023-04-29T04:32:03;10.70;25.70
11423;DHT22;5768;51.476;7.210;2023-04-29T04:37:05;10.80;26.00
11423;DHT22;5768;51.476;7.210;2023-04-29T04:42:09;10.70;26.10
11423;DHT22;5768;51.476;7.210;2023-04-29T04:47:11;10.90;26.10
11423;DHT22;5768;51.476;7.210;2023-04-29T04:52:13;10.70;26.30
11423;DHT22;5768;51.476;7.210;2023-04-29T04:57:16;10.70;26.40
11423;DHT22;5768;51.476;7.210;2023-04-29T05:02:19;10.90;25.60
11423;DHT22;5768;51.476;7.210;2023-04-29T05:07:21;11.00;25.30
11423;DHT22;5768;51.476;7.210;2023-04-29T05:12:26;11.00;25.10
11423;DHT22;5768;51.476;7.210;2023-04-29T05:17:30;11.10;25.10
11423;DHT22;5768;51.476;7.210;2023-04-29T05:22:34;11.20;24.70
11423;DHT22;5768;51.476;7.210;2023-04-29T05:27:37;11.10;24.50
11423;DHT22;5768;51.476;7.210;2023-04-29T05:32:40;11.10;24.30
11423;DHT22;5768;51.476;7.210;2023-04-29T05:37:42;11.20;24.10
11423;DHT22;5768;51.476;7.210;2023-04-29T05:42:46;11.50;23.80
11423;DHT22;5768;51.476;7.210;2023-04-29T05:47:48;11.30;23.80
11423;DHT22;5768;51.476;7.210;2023-04-29T05:52:51;11.30;24.00
11423;DHT22;5768;51.476;7.210;2023-04-29T05:57:55;11.40;23.50
11423;DHT22;5768;51.476;7.210;2023-04-29T06:02:57;11.50;23.00
11423;DHT22;5768;51.476;7.210;2023-04-29T06:08:00;11.60;22.90
11423;DHT22;5768;51.476;7.210;2023-04-29T06:13:04;11.60;22.80
11423;DHT22;5768;51.476;7.210;2023-04-29T06:18:06;11.60;22.60
11423;DHT22;5768;51.476;7.210;2023-04-29T06:23:08;11.20;22.80
11423;DHT22;5768;51.476;7.210;2023-04-29T06:28:12;11.50;22.60
11423;DHT22;5768;51.476;7.210;2023-04-29T06:33:14;11.40;23.10
11423;DHT22;5768;51.476;7.210;2023-04-29T06:38:17;11.50;22.60
11423;DHT22;5768;51.476;7.210;2023-04-29T06:43:20;11.70;22.60
11423;DHT22;5768;51.476;7.210;2023-04-29T06:48:23;11.70;22.10
11423;DHT22;5768;51.476;7.210;2023-04-29T06:53:27;11.80;21.70
11423;DHT22;5768;51.476;7.210;2023-04-29T06:58:31;11.70;21.90
11423;DHT22;5768;51.476;7.210;2023-04-29T07:03:33;11.90;21.60
11423;DHT22;5768;51.476;7.210;2023-04-29T07:08:35;11.70;21.60
11423;DHT22;5768;51.476;7.210;2023-04-29T07:13:39;11.10;23.10
11423;DHT22;5768;51.476;7.210;2023-04-29T07:18:41;10.90;23.80
11423;DHT22;5768;51.476;7.210;2023-04-29T07:23:43;10.50;24.40
11423;DHT22;5768;51.476;7.210;2023-04-29T07:28:47;10.90;24.70
11423;DHT22;5768;51.476;7.210;2023-04-29T07:33:50;11.10;24.10
11423;DHT22;5768;51.476;7.210;2023-04-29T07:38:52;11.40;23.20
11423;DHT22;5768;51.476;7.210;2023-04-29T07:43:56;11.30;23.10
11423;DHT22;5768;51.476;7.210;2023-04-29T07:48:58;11.20;23.00
11423;DHT22;5768;51.476;7.210;2023-04-29T07:54:00;11.10;23.10
11423;DHT22;5768;51.476;7.210;2023-04-29T07:59:04;11.20;23.30
11423;DHT22;5768;51.476;7.210;2023-04-29T08:04:06;11.30;23.00
11423;DHT22;5768;51.476;7.210;2023-04-29T08:09:08;11.10;22.80
11423;DHT22;5768;51.476;7.210;2023-04-29T08:14:12;11.00;23.50
11423;DHT22;5768;51.476;7.210;2023-04-29T08:19:14;11.20;23.20
11423;DHT22;5768;51.476;7.210;2023-04-29T08:24:16;11.30;22.90
11423;DHT22;5768;51.476;7.210;2023-04-29T08:29:21;11.50;22.50
11423;DHT22;5768;51.476;7.210;2023-04-29T08:34:23;11.50;22.50
11423;DHT22;5768;51.476;7.210;2023-04-29T08:39:27;11.40;22.50
11423;DHT22;5768;51.476;7.210;2023-04-29T08:44:31;11.60;22.20
11423;DHT22;5768;51.476;7.210;2023-04-29T08:49:34;11.70;21.90
11423;DHT22;5768;51.476;7.210;2023-04-29T08:54:37;11.50;22.10
11423;DHT22;5768;51.476;7.210;2023-04-29T08:59:41;11.60;22.50
11423;DHT22;5768;51.476;7.210;2023-04-29T09:04:48;11.90;21.60
11423;DHT22;5768;51.476;7.210;2023-04-29T09:09:59;12.00;21.10
11423;DHT22;5768;51.476;7.210;2023-04-29T09:15:05;12.20;20.80
11423;DHT22;5768;51.476;7.210;2023-04-29T09:20:26;12.20;20.60
11423;DHT22;5768;51.476;7.210;2023-04-29T09:25:30;12.20;20.60
11423;DHT22;5768;51.476;7.210;2023-04-29T09:30:44;12.40;20.30
11423;DHT22;5768;51.476;7.210;2023-04-29T09:35:47;12.40;20.20
11423;DHT22;5768;51.476;7.210;2023-04-29T09:40:50;12.60;19.80
11423;DHT22;5768;51.476;7.210;2023-04-29T09:45:54;12.70;19.70
11423;DHT22;5768;51.476;7.210;2023-04-29T09:51:01;13.10;19.50
11423;DHT22;5768;51.476;7.210;2023-04-29T09:56:04;13.40;18.80
11423;DHT22;5768;51.476;7.210;2023-04-29T10:01:09;13.20;18.70
11423;DHT22;5768;51.476;7.210;2023-04-29T10:06:13;13.10;19.10
11423;DHT22;5768;51.476;7.210;2023-04-29T10:11:17;13.80;18.40
11423;DHT22;5768;51.476;7.210;2023-04-29T10:16:27;14.20;17.60
11423;DHT22;5768;51.476;7.210;2023-04-29T10:21:31;14.70;16.90
11423;DHT22;5768;51.476;7.210;2023-04-29T10:26:33;14.80;16.70
11423;DHT22;5768;51.476;7.210;2023-04-29T10:31:42;15.20;16.40
11423;DHT22;5768;51.476;7.210;2023-04-29T10:36:46;15.40;16.30
11423;DHT22;5768;51.476;7.210;2023-04-29T10:41:50;15.60;15.70
11423;DHT22;5768;51.476;7.210;2023-04-29T10:47:21;15.80;15.70
11423;DHT22;5768;51.476;7.210;2023-04-29T10:52:23;16.20;15.20
11423;DHT22;5768;51.476;7.210;2023-04-29T10:57:26;16.30;15.00
11423;DHT22;5768;51.476;7.210;2023-04-29T11:02:29;16.40;15.00
11423;DHT22;5768;51.476;7.210;2023-04-29T11:07:32;16.80;14.30
11423;DHT22;5768;51.476;7.210;2023-04-29T11:12:34;17.30;14.10
11423;DHT22;5768;51.476;7.210;2023-04-29T11:17:39;17.30;13.80
11423;DHT22;5768;51.476;7.210;2023-04-29T11:22:50;17.00;14.00
11423;DHT22;5768;51.476;7.210;2023-04-29T11:27:53;17.70;13.60
11423;DHT22;5768;51.476;7.210;2023-04-29T11:32:58;17.70;13.50
11423;DHT22;5768;51.476;7.210;2023-04-29T11:38:00;18.10;13.30
11423;DHT22;5768;51.476;7.210;2023-04-29T11:43:05;18.50;12.90
11423;DHT22;5768;51.476;7.210;2023-04-29T11:48:08;18.50;12.70
11423;DHT22;5768;51.476;7.210;2023-04-29T11:53:11;18.10;12.80
11423;DHT22;5768;51.476;7.210;2023-04-29T11:58:14;18.00;12.90
11423;DHT22;5768;51.476;7.210;2023-04-29T12:03:19;17.70;13.10
11423;DHT22;5768;51.476;7.210;2023-04-29T12:08:23;18.10;12.80
11423;DHT22;5768;51.476;7.210;2023-04-29T12:13:28;17.60;12.90
11423;DHT22;5768;51.476;7.210;2023-04-29T12:18:37;18.00;12.80
11423;DHT22;5768;51.476;7.210;2023-04-29T12:23:43;19.10;12.50
11423;DHT22;5768;51.476;7.210;2023-04-29T12:28:48;18.30;12.40
11423;DHT22;5768;51.476;7.210;2023-04-29T12:33:56;18.90;12.00
11423;DHT22;5768;51.476;7.210;2023-04-29T12:38:59;18.60;12.10
11423;DHT22;5768;51.476;7.210;2023-04-29T12:44:02;18.60;12.20
11423;DHT22;5768;51.476;7.210;2023-04-29T12:49:06;18.30;12.10
11423;DHT22;5768;51.476;7.210;2023-04-29T12:54:09;17.50;12.20
11423;DHT22;5768;51.476;7.210;2023-04-29T12:59:11;17.00;12.50
11423;DHT22;5768;51.476;7.210;2023-04-29T13:04:15;17.10;12.50
11423;DHT22;5768;51.476;7.210;2023-04-29T13:09:17;17.60;12.40
11423;DHT22;5768;51.476;7.210;2023-04-29T13:14:22;18.10;12.00
11423;DHT22;5768;51.476;7.210;2023-04-29T13:19:26;18.50;11.90
11423;DHT22;5768;51.476;7.210;2023-04-29T13:24:28;18.90;11.80
11423;DHT22;5768;51.476;7.210;2023-04-29T13:29:32;18.20;11.60
11423;DHT22;5768;51.476;7.210;2023-04-29T13:34:36;17.70;12.00
11423;DHT22;5768;51.476;7.210;2023-04-29T13:39:39;17.70;11.90
11423;DHT22;5768;51.476;7.210;2023-04-29T13:44:42;17.40;12.20
11423;DHT22;5768;51.476;7.210;2023-04-29T13:49:46;17.10;12.20
11423;DHT22;5768;51.476;7.210;2023-04-29T13:54:48;17.10;12.40
11423;DHT22;5768;51.476;7.210;2023-04-29T13:59:50;17.50;12.40
11423;DHT22;5768;51.476;7.210;2023-04-29T14:04:56;17.80;11.90
11423;DHT22;5768;51.476;7.210;2023-04-29T14:09:58;18.00;11.70
11423;DHT22;5768;51.476;7.210;2023-04-29T14:15:00;18.20;11.90
11423;DHT22;5768;51.476;7.210;2023-04-29T14:20:06;18.30;11.90
11423;DHT22;5768;51.476;7.210;2023-04-29T14:25:10;18.50;11.60
11423;DHT22;5768;51.476;7.210;2023-04-29T14:30:13;18.70;11.60
11423;DHT22;5768;51.476;7.210;2023-04-29T14:35:17;18.20;11.70
11423;DHT22;5768;51.476;7.210;2023-04-29T14:40:19;17.60;12.00
11423;DHT22;5768;51.476;7.210;2023-04-29T14:45:21;17.20;12.20
11423;DHT22;5768;51.476;7.210;2023-04-29T14:50:25;17.30;12.50
11423;DHT22;5768;51.476;7.210;2023-04-29T14:55:27;17.70;12.30
11423;DHT22;5768;51.476;7.210;2023-04-29T15:00:30;17.80;12.20
11423;DHT22;5768;51.476;7.210;2023-04-29T15:05:37;18.30;12.00
11423;DHT22;5768;51.476;7.210;2023-04-29T15:10:40;18.80;11.70
11423;DHT22;5768;51.476;7.210;2023-04-29T15:15:43;19.80;11.40
11423;DHT22;5768;51.476;7.210;2023-04-29T15:20:47;25.40;9.80
11423;DHT22;5768;51.476;7.210;2023-04-29T15:25:50;26.20;9.00
11423;DHT22;5768;51.476;7.210;2023-04-29T15:30:53;28.80;8.50
11423;DHT22;5768;51.476;7.210;2023-04-29T15:35:57;29.00;7.90
11423;DHT22;5768;51.476;7.210;2023-04-29T15:40:59;30.40;7.80
11423;DHT22;5768;51.476;7.210;2023-04-29T15:46:06;29.50;7.50
11423;DHT22;5768;51.476;7.210;2023-04-29T15:51:10;25.40;8.20
11423;DHT22;5768;51.476;7.210;2023-04-29T15:56:17;23.30;8.80
11423;DHT22;5768;51.476;7.210;2023-04-29T16:01:19;22.00;9.10
11423;DHT22;5768;51.476;7.210;2023-04-29T16:06:23;21.00;9.50
11423;DHT22;5768;51.476;7.210;2023-04-29T16:11:27;20.30;9.70
11423;DHT22;5768;51.476;7.210;2023-04-29T16:16:30;19.70;10.00
11423;DHT22;5768;51.476;7.210;2023-04-29T16:21:34;18.70;10.40
11423;DHT22;5768;51.476;7.210;2023-04-29T16:26:42;18.50;10.60
11423;DHT22;5768;51.476;7.210;2023-04-29T16:31:45;18.10;10.80
11423;DHT22;5768;51.476;7.210;2023-04-29T16:36:49;17.70;10.90
11423;DHT22;5768;51.476;7.210;2023-04-29T16:41:54;17.50;11.00
11423;DHT22;5768;51.476;7.210;2023-04-29T16:46:57;17.40;11.20
11423;DHT22;5768;51.476;7.210;2023-04-29T16:52:01;17.10;11.40
11423;DHT22;5768;51.476;7.210;2023-04-29T16:57:04;16.80;11.50
11423;DHT22;5768;51.476;7.210;2023-04-29T17:02:06;16.90;11.50
11423;DHT22;5768;51.476;7.210;2023-04-29T17:07:10;16.90;11.60
11423;DHT22;5768;51.476;7.210;2023-04-29T17:12:14;16.70;11.70
11423;DHT22;5768;51.476;7.210;2023-04-29T17:17:16;16.50;11.80
11423;DHT22;5768;51.476;7.210;2023-04-29T17:22:19;16.20;11.90
11423;DHT22;5768;51.476;7.210;2023-04-29T17:27:21;16.40;11.90
11423;DHT22;5768;51.476;7.210;2023-04-29T17:32:24;16.30;11.90
11423;DHT22;5768;51.476;7.210;2023-04-29T17:37:30;16.10;12.00
11423;DHT22;5768;51.476;7.210;2023-04-29T17:42:32;16.00;12.10
11423;DHT22;5768;51.476;7.210;2023-04-29T17:47:34;15.80;12.30
11423;DHT22;5768;51.476;7.210;2023-04-29T17:52:38;15.70;12.40
11423;DHT22;5768;51.476;7.210;2023-04-29T17:57:40;15.70;12.40
11423;DHT22;5768;51.476;7.210;2023-04-29T18:02:43;15.70;12.50
11423;DHT22;5768;51.476;7.210;2023-04-29T18:07:46;16.00;12.50
11423;DHT22;5768;51.476;7.210;2023-04-29T18:12:49;16.00;12.50
11423;DHT22;5768;51.476;7.210;2023-04-29T18:17:51;15.90;12.50
11423;DHT22;5768;51.476;7.210;2023-04-29T18:22:55;15.70;12.60
11423;DHT22;5768;51.476;7.210;2023-04-29T18:27:57;15.60;12.70
11423;DHT22;5768;51.476;7.210;2023-04-29T18:33:00;15.40;12.80
11423;DHT22;5768;51.476;7.210;2023-04-29T18:38:04;15.50;12.80
11423;DHT22;5768;51.476;7.210;2023-04-29T18:43:06;15.60;12.90
11423;DHT22;5768;51.476;7.210;2023-04-29T18:48:09;15.60;12.90
11423;DHT22;5768;51.476;7.210;2023-04-29T18:53:13;15.60;12.90
11423;DHT22;5768;51.476;7.210;2023-04-29T18:58:16;15.50;13.00
11423;DHT22;5768;51.476;7.210;2023-04-29T19:03:18;15.30;13.10
11423;DHT22;5768;51.476;7.210;2023-04-29T19:08:22;15.10;13.20
11423;DHT22;5768;51.476;7.210;2023-04-29T19:13:24;15.00;13.40
11423;DHT22;5768;51.476;7.210;2023-04-29T19:18:27;14.80;13.40
11423;DHT22;5768;51.476;7.210;2023-04-29T19:23:31;14.60;13.60
11423;DHT22;5768;51.476;7.210;2023-04-29T19:28:33;14.60;13.80
11423;DHT22;5768;51.476;7.210;2023-04-29T19:33:35;14.30;14.00
11423;DHT22;5768;51.476;7.210;2023-04-29T19:38:39;14.20;14.00
11423;DHT22;5768;51.476;7.210;2023-04-29T19:43:41;14.10;14.10
11423;DHT22;5768;51.476;7.210;2023-04-29T19:48:44;14.00;14.10
11423;DHT22;5768;51.476;7.210;2023-04-29T19:53:48;13.90;14.30
11423;DHT22;5768;51.476;7.210;2023-04-29T19:58:51;13.70;14.50
11423;DHT22;5768;51.476;7.210;2023-04-29T20:03:53;13.60;14.70
11423;DHT22;5768;51.476;7.210;2023-04-29T20:08:57;13.40;14.70
11423;DHT22;5768;51.476;7.210;2023-04-29T20:13:59;13.10;14.80
11423;DHT22;5768;51.476;7.210;2023-04-29T20:19:01;13.30;14.70
11423;DHT22;5768;51.476;7.210;2023-04-29T20:24:05;13.20;14.70
11423;DHT22;5768;51.476;7.210;2023-04-29T20:29:07;13.00;14.60
11423;DHT22;5768;51.476;7.210;2023-04-29T20:34:10;12.90;14.60
11423;DHT22;5768;51.476;7.210;2023-04-29T20:39:14;12.80;14.50
11423;DHT22;5768;51.476;7.210;2023-04-29T20:44:17;12.80;14.50
11423;DHT22;5768;51.476;7.210;2023-04-29T20:49:20;12.70;14.40
11423;DHT22;5768;51.476;7.210;2023-04-29T20:54:26;12.60;14.50
11423;DHT22;5768;51.476;7.210;2023-04-29T20:59:28;12.60;14.40
11423;DHT22;5768;51.476;7.210;2023-04-29T21:04:31;12.60;14.40
11423;DHT22;5768;51.476;7.210;2023-04-29T21:09:35;12.60;14.20
11423;DHT22;5768;51.476;7.210;2023-04-29T21:14:37;12.50;14.20
11423;DHT22;5768;51.476;7.210;2023-04-29T21:19:39;12.60;14.20
11423;DHT22;5768;51.476;7.210;2023-04-29T21:24:44;12.30;14.10
11423;DHT22;5768;51.476;7.210;2023-04-29T21:29:46;12.30;14.10
11423;DHT22;5768;51.476;7.210;2023-04-29T21:34:48;12.30;14.10
11423;DHT22;5768;51.476;7.210;2023-04-29T21:39:52;12.20;14.10
11423;DHT22;5768;51.476;7.210;2023-04-29T21:44:58;12.30;14.10
11423;DHT22;5768;51.476;7.210;2023-04-29T21:50:05;12.10;14.00
11423;DHT22;5768;51.476;7.210;2023-04-29T21:55:11;12.10;14.00
11423;DHT22;5768;51.476;7.210;2023-04-29T22:00:13;12.10;14.00
11423;DHT22;5768;51.476;7.210;2023-04-29T22:05:32;12.00;13.90
11423;DHT22;5768;51.476;7.210;2023-04-29T22:10:35;11.90;14.10
11423;DHT22;5768;51.476;7.210;2023-04-29T22:15:39;11.80;14.30
11423;DHT22;5768;51.476;7.210;2023-04-29T22:20:42;11.80;14.50
11423;DHT22;5768;51.476;7.210;2023-04-29T22:25:45;11.70;14.50
11423;DHT22;5768;51.476;7.210;2023-04-29T22:30:48;11.70;14.50
11423;DHT22;5768;51.476;7.210;2023-04-29T22:35:50;11.80;14.60
11423;DHT22;5768;51.476;7.210;2023-04-29T22:40:54;11.60;14.70
11423;DHT22;5768;51.476;7.210;2023-04-29T22:45:56;11.40;14.80
11423;DHT22;5768;51.476;7.210;2023-04-29T22:50:58;11.40;14.90
11423;DHT22;5768;51.476;7.210;2023-04-29T22:56:04;11.40;15.10
11423;DHT22;5768;51.476;7.210;2023-04-29T23:01:07;11.30;15.20
11423;DHT22;5768;51.476;7.210;2023-04-29T23:06:09;11.20;15.20
11423;DHT22;5768;51.476;7.210;2023-04-29T23:11:13;11.10;15.30
11423;DHT22;5768;51.476;7.210;2023-04-29T23:16:15;11.00;15.60
11423;DHT22;5768;51.476;7.210;2023-04-29T23:21:17;10.90;15.70
11423;DHT22;5768;51.476;7.210;2023-04-29T23:26:21;10.80;15.90
11423;DHT22;5768;51.476;7.210;2023-04-29T23:31:23;10.70;16.00
11423;DHT22;5768;51.476;7.210;2023-04-29T23:36:25;10.80;16.00
11423;DHT22;5768;51.476;7.210;2023-04-29T23:41:29;10.70;16.10
11423;DHT22;5768;51.476;7.210;2023-04-29T23:46:32;10.60;16.30
11423;DHT22;5768;51.476;7.210;2023-04-29T23:51:34;10.70;16.20
11423;DHT22;5768;51.476;7.210;2023-04-29T23:56:41;10.60;16.30
